Time;durP1;ratioP1;P1;durP2;ratioP2;P2;SDS_P1;SDS_P2;PMS_P1;PMS_P2;Temp;Humidity;BMP_temperature;BMP_pressure;BME280_temperature;BME280_humidity;BME280_pressure;Samples;Min_cycle;Max_cycle;Signal;HPM_P1;HPM_P2
2022/01/12 00:18:27;;;;;;;;;;;-1.30;99.90;;;;;;6164115;23;19927;-89
2022/01/12 00:41:37;;;;;;;;;;;-1.40;99.90;;;;;;6167632;22;19930;-92
2022/01/12 01:02:27;;;;;;;;;;;-1.30;99.90;;;;;;6220446;22;20467;-89
2022/01/12 01:05:02;;;;;;;;;;;-1.30;99.90;;;;;;6182059;23;19916;-88
2022/01/12 01:26:23;;;;;;;;;;;-1.30;99.90;;;;;;6146765;23;20070;-93
2022/01/12 01:28:49;;;;;;;;;;;-1.30;99.90;;;;;;6128529;23;19968;-93
2022/01/12 01:31:14;;;;;;;;;;;-1.30;99.90;;;;;;6166227;23;19912;-91
2022/01/12 01:33:54;;;;;;;;;;;-1.30;99.90;;;;;;6174132;23;20401;-91
2022/01/12 01:36:23;;;;;;;;;;;-1.30;99.90;;;;;;6120660;23;19904;-93
2022/01/12 03:18:04;;;;;;;;;;;-1.10;99.90;;;;;;6185963;23;19939;-86
2022/01/12 03:23:16;;;;;;;;;;;-1.10;99.90;;;;;;6155552;23;20141;-92
2022/01/12 03:34:10;;;;;;;;;;;-1.10;99.90;;;;;;6210131;22;19934;-89
2022/01/12 03:42:19;;;;;;;;;;;-1.10;99.90;;;;;;6177705;23;19924;-90
2022/01/12 03:44:53;;;;;;;;;;;-1.10;99.90;;;;;;6197091;23;19908;-89
2022/01/12 03:47:23;;;;;;;;;;;-1.00;99.90;;;;;;6172212;23;19987;-90
2022/01/12 03:49:49;;;;;;;;;;;-1.00;99.90;;;;;;6167810;23;19896;-94
2022/01/12 03:52:20;;;;;;;;;;;-1.00;99.90;;;;;;6180869;23;19920;-87
2022/01/12 04:08:20;;;;;;;;;;;-1.00;99.90;;;;;;6177289;22;19915;-88
2022/01/12 04:10:47;;;;;;;;;;;-0.90;99.90;;;;;;6179230;22;19923;-87
2022/01/12 04:13:14;;;;;;;;;;;-0.90;99.90;;;;;;6233384;23;19947;-87
2022/01/12 04:15:41;;;;;;;;;;;-0.90;99.90;;;;;;6232223;23;20333;-88
2022/01/12 04:18:07;;;;;;;;;;;-0.90;99.90;;;;;;6194415;23;19916;-88
2022/01/12 04:20:32;;;;;;;;;;;-0.90;99.90;;;;;;6191375;23;19912;-89
2022/01/12 04:25:56;;;;;;;;;;;-0.90;99.90;;;;;;6192763;23;19922;-90
2022/01/12 04:28:24;;;;;;;;;;;-0.90;99.90;;;;;;6205459;23;19911;-90
2022/01/12 04:30:50;;;;;;;;;;;-1.00;99.90;;;;;;6177025;23;19946;-89
2022/01/12 04:33:17;;;;;;;;;;;-0.90;99.90;;;;;;6194118;23;19923;-92
2022/01/12 04:35:51;;;;;;;;;;;-1.00;99.90;;;;;;6162728;23;19989;-91
2022/01/12 04:38:21;;;;;;;;;;;-1.00;99.90;;;;;;6202499;23;20323;-88
2022/01/12 04:40:47;;;;;;;;;;;-0.90;99.90;;;;;;6204574;23;19954;-88
2022/01/12 04:43:13;;;;;;;;;;;-0.90;99.90;;;;;;6205811;23;19970;-89
2022/01/12 04:48:52;;;;;;;;;;;-0.90;99.90;;;;;;6176558;23;19907;-86
2022/01/12 04:51:17;;;;;;;;;;;-0.90;99.90;;;;;;6207945;23;19912;-90
2022/01/12 04:53:43;;;;;;;;;;;-0.80;99.90;;;;;;6208584;23;19942;-89
2022/01/12 04:56:08;;;;;;;;;;;-0.80;99.90;;;;;;6206649;23;20225;-89
2022/01/12 04:58:34;;;;;;;;;;;-0.80;99.90;;;;;;6208097;23;20564;-88
2022/01/12 05:01:07;;;;;;;;;;;-0.90;99.90;;;;;;6234282;23;19911;-89
2022/01/12 05:06:46;;;;;;;;;;;-0.80;99.90;;;;;;6234685;23;20247;-88
2022/01/12 05:09:27;;;;;;;;;;;-0.80;99.90;;;;;;6196439;23;19912;-89
2022/01/12 05:15:04;;;;;;;;;;;-0.80;99.90;;;;;;6144570;23;19915;-86
2022/01/12 05:17:33;;;;;;;;;;;-0.80;99.90;;;;;;6209328;23;20323;-89
2022/01/12 05:19:58;;;;;;;;;;;-0.80;99.90;;;;;;6208745;23;19918;-92
2022/01/12 05:22:24;;;;;;;;;;;-0.80;99.90;;;;;;6207676;23;20532;-90
2022/01/12 05:24:49;;;;;;;;;;;-0.90;99.90;;;;;;6207966;23;19963;-89
2022/01/12 05:27:15;;;;;;;;;;;-0.80;99.90;;;;;;6208116;23;19918;-89
2022/01/12 05:29:40;;;;;;;;;;;-0.80;99.90;;;;;;6236390;23;19938;-90
2022/01/12 05:32:06;;;;;;;;;;;-0.80;99.90;;;;;;6207330;23;19912;-90
2022/01/12 05:34:32;;;;;;;;;;;-0.70;99.90;;;;;;6209695;23;19912;-91
2022/01/12 05:36:57;;;;;;;;;;;-0.80;99.90;;;;;;6207293;23;19912;-89
2022/01/12 05:39:23;;;;;;;;;;;-0.80;99.90;;;;;;6207539;23;19962;-90
2022/01/12 05:41:48;;;;;;;;;;;-0.70;99.90;;;;;;6206209;23;20207;-90
2022/01/12 05:44:14;;;;;;;;;;;-0.70;99.90;;;;;;6209096;23;19927;-90
2022/01/12 05:46:41;;;;;;;;;;;-0.70;99.90;;;;;;6193374;23;19915;-90
2022/01/12 05:51:51;;;;;;;;;;;-0.70;99.90;;;;;;6219379;23;19918;-87
2022/01/12 05:54:17;;;;;;;;;;;-0.70;99.90;;;;;;6210189;23;19941;-87
2022/01/12 05:56:42;;;;;;;;;;;-0.70;99.90;;;;;;6208744;23;19912;-88
2022/01/12 05:59:07;;;;;;;;;;;-0.70;99.90;;;;;;6210585;23;19911;-88
2022/01/12 06:01:33;;;;;;;;;;;-0.70;99.90;;;;;;6235022;23;19915;-87
2022/01/12 06:03:59;;;;;;;;;;;-0.70;99.90;;;;;;6209704;23;19911;-88
2022/01/12 06:06:24;;;;;;;;;;;-0.80;99.90;;;;;;6208189;23;19918;-87
2022/01/12 06:08:52;;;;;;;;;;;-0.60;99.90;;;;;;6236800;23;19918;-91
2022/01/12 06:11:22;;;;;;;;;;;-0.60;99.90;;;;;;6206937;23;19925;-88
2022/01/12 06:13:50;;;;;;;;;;;-0.60;99.90;;;;;;6208447;23;20316;-89
2022/01/12 06:16:15;;;;;;;;;;;-0.60;99.90;;;;;;6207718;23;19911;-88
2022/01/12 06:18:41;;;;;;;;;;;-0.60;99.90;;;;;;6207978;23;19931;-89
2022/01/12 06:21:06;;;;;;;;;;;-0.70;99.90;;;;;;6233922;23;19990;-88
2022/01/12 06:23:32;;;;;;;;;;;-0.70;99.90;;;;;;6209505;23;19961;-90
2022/01/12 06:25:57;;;;;;;;;;;-0.70;99.90;;;;;;6210927;23;19915;-92
2022/01/12 06:33:33;;;;;;;;;;;-0.70;99.90;;;;;;6235240;23;19974;-89
2022/01/12 06:36:01;;;;;;;;;;;-0.70;99.90;;;;;;6215391;23;20243;-92
2022/01/12 06:38:26;;;;;;;;;;;-0.70;99.90;;;;;;6217263;23;19911;-91
2022/01/12 06:40:52;;;;;;;;;;;-0.70;99.90;;;;;;6195088;23;19916;-91
2022/01/12 06:43:17;;;;;;;;;;;-0.70;99.90;;;;;;6222595;23;20319;-86
2022/01/12 06:45:43;;;;;;;;;;;-0.70;99.90;;;;;;6239976;23;19919;-90
2022/01/12 06:48:09;;;;;;;;;;;-0.70;99.90;;;;;;6212683;23;19960;-93
2022/01/12 06:50:35;;;;;;;;;;;-0.70;99.90;;;;;;6214080;23;20435;-90
2022/01/12 06:53:01;;;;;;;;;;;-0.70;99.90;;;;;;6212948;23;19991;-92
2022/01/12 06:55:26;;;;;;;;;;;-0.70;99.90;;;;;;6238726;23;19947;-93
2022/01/12 06:57:52;;;;;;;;;;;-0.70;99.90;;;;;;6238011;23;19912;-92
2022/01/12 07:00:17;;;;;;;;;;;-0.60;99.90;;;;;;6209930;23;19912;-90
2022/01/12 07:02:43;;;;;;;;;;;-0.50;99.90;;;;;;6194713;23;19919;-93
2022/01/12 07:05:11;;;;;;;;;;;-0.60;99.90;;;;;;6191153;23;19918;-93
2022/01/12 07:07:37;;;;;;;;;;;-0.70;99.90;;;;;;6238127;23;19915;-94
2022/01/12 07:10:03;;;;;;;;;;;-0.40;99.90;;;;;;6209598;23;19919;-93
2022/01/12 07:12:28;;;;;;;;;;;-0.40;99.90;;;;;;6237566;23;20030;-92
2022/01/12 07:14:54;;;;;;;;;;;-0.50;99.90;;;;;;6211718;23;19911;-91
2022/01/12 07:17:19;;;;;;;;;;;-0.50;99.90;;;;;;6223005;23;19908;-92
2022/01/12 07:19:48;;;;;;;;;;;-0.50;99.90;;;;;;6191580;23;20240;-92
2022/01/12 07:22:13;;;;;;;;;;;-0.50;99.90;;;;;;6190993;23;19915;-91
2022/01/12 07:24:39;;;;;;;;;;;-0.50;99.90;;;;;;6209583;23;19911;-92
2022/01/12 07:27:04;;;;;;;;;;;-0.50;99.90;;;;;;6210396;23;19912;-92
2022/01/12 07:29:47;;;;;;;;;;;-0.50;99.90;;;;;;6210592;23;19915;-92
2022/01/12 07:32:13;;;;;;;;;;;-0.50;99.90;;;;;;6237598;23;19914;-91
2022/01/12 07:34:38;;;;;;;;;;;-0.50;99.90;;;;;;6212753;23;20407;-90
2022/01/12 07:37:05;;;;;;;;;;;-0.50;99.90;;;;;;6209246;23;19982;-92
2022/01/12 07:39:31;;;;;;;;;;;-0.60;99.90;;;;;;6212254;23;20379;-93
2022/01/12 07:41:56;;;;;;;;;;;-0.60;99.90;;;;;;6237117;23;19982;-92
2022/01/12 07:44:22;;;;;;;;;;;-0.60;99.90;;;;;;6212845;23;19908;-89
2022/01/12 07:46:48;;;;;;;;;;;-0.60;99.90;;;;;;6208045;23;20352;-88
2022/01/12 07:49:13;;;;;;;;;;;-0.50;99.90;;;;;;6204138;23;19975;-90
2022/01/12 07:51:39;;;;;;;;;;;-0.50;99.90;;;;;;6201567;23;19908;-92
2022/01/12 07:54:04;;;;;;;;;;;-0.40;99.90;;;;;;6209183;23;19916;-92
2022/01/12 07:56:30;;;;;;;;;;;-0.40;99.90;;;;;;6193890;23;19915;-91
2022/01/12 07:58:55;;;;;;;;;;;-0.30;99.90;;;;;;6237210;23;20382;-93
2022/01/12 08:01:23;;;;;;;;;;;-0.30;99.90;;;;;;6207536;23;20371;-90
2022/01/12 08:03:51;;;;;;;;;;;-0.20;99.90;;;;;;6210918;23;19917;-90
2022/01/12 08:06:17;;;;;;;;;;;-0.20;99.90;;;;;;6236456;23;19912;-93
2022/01/12 08:08:46;;;;;;;;;;;-0.20;99.90;;;;;;6211624;23;19915;-92
2022/01/12 08:11:11;;;;;;;;;;;-0.20;99.90;;;;;;6158438;23;19924;-92
2022/01/12 08:13:42;;;;;;;;;;;-0.10;99.90;;;;;;6180911;23;19942;-90
2022/01/12 08:16:08;;;;;;;;;;;-0.10;99.90;;;;;;6180994;23;19942;-92
2022/01/12 08:18:33;;;;;;;;;;;0.10;99.90;;;;;;6208667;23;19912;-92
2022/01/12 08:21:00;;;;;;;;;;;0.10;99.90;;;;;;6206811;23;19923;-90
2022/01/12 08:23:26;;;;;;;;;;;0.10;99.90;;;;;;6181033;23;19918;-92
2022/01/12 08:25:51;;;;;;;;;;;0.10;99.90;;;;;;6180768;23;20336;-92
2022/01/12 08:28:17;;;;;;;;;;;0.20;99.90;;;;;;6186477;23;19912;-91
2022/01/12 08:30:42;;;;;;;;;;;0.20;99.90;;;;;;6180081;23;19908;-90
2022/01/12 08:33:09;;;;;;;;;;;0.30;99.90;;;;;;6207176;23;19916;-93
2022/01/12 08:35:34;;;;;;;;;;;0.30;99.90;;;;;;6180580;23;19915;-90
2022/01/12 08:38:00;;;;;;;;;;;0.40;99.90;;;;;;6181542;23;19969;-90
2022/01/12 08:40:25;;;;;;;;;;;0.40;99.90;;;;;;6179120;23;19983;-91
2022/01/12 08:42:51;;;;;;;;;;;0.50;99.90;;;;;;6169137;23;19916;-90
2022/01/12 08:45:17;;;;;;;;;;;0.60;99.90;;;;;;6181319;23;19908;-91
2022/01/12 08:47:43;;;;;;;;;;;0.60;99.90;;;;;;6207915;23;19915;-91
2022/01/12 08:50:10;;;;;;;;;;;0.70;99.90;;;;;;6180716;23;19908;-92
2022/01/12 08:52:36;;;;;;;;;;;0.70;99.90;;;;;;6181697;23;19947;-90
2022/01/12 08:55:01;;;;;;;;;;;0.70;99.90;;;;;;6182165;23;19966;-92
2022/01/12 08:57:30;;;;;;;;;;;0.70;99.90;;;;;;6180435;23;19916;-89
2022/01/12 09:00:03;;;;;;;;;;;0.80;99.90;;;;;;6181450;23;19912;-93
2022/01/12 09:02:29;;;;;;;;;;;0.80;99.90;;;;;;6180562;23;19979;-91
2022/01/12 09:04:57;;;;;;;;;;;0.80;99.90;;;;;;6207104;23;20441;-92
2022/01/12 09:07:22;;;;;;;;;;;0.90;99.90;;;;;;6180617;23;19912;-93
2022/01/12 09:09:51;;;;;;;;;;;0.90;99.90;;;;;;6181716;23;19943;-89
2022/01/12 09:12:16;;;;;;;;;;;1.00;99.90;;;;;;6206469;23;19968;-92
2022/01/12 09:14:42;;;;;;;;;;;1.10;99.90;;;;;;6198029;23;19968;-90
2022/01/12 09:17:19;;;;;;;;;;;1.10;99.90;;;;;;6209365;23;20405;-91
2022/01/12 09:19:47;;;;;;;;;;;1.10;99.90;;;;;;6236998;23;20204;-88
2022/01/12 09:22:14;;;;;;;;;;;1.10;99.90;;;;;;6209230;23;19961;-91
2022/01/12 09:24:42;;;;;;;;;;;1.10;99.90;;;;;;6210022;23;19919;-90
2022/01/12 09:27:07;;;;;;;;;;;1.20;99.90;;;;;;6208613;23;19927;-89
2022/01/12 09:29:33;;;;;;;;;;;1.20;99.90;;;;;;6238151;23;20286;-90
2022/01/12 09:32:00;;;;;;;;;;;1.20;99.90;;;;;;6236733;23;19923;-89
2022/01/12 09:34:25;;;;;;;;;;;1.30;99.90;;;;;;6211380;23;19935;-92
2022/01/12 09:36:51;;;;;;;;;;;1.30;99.90;;;;;;6237560;23;20427;-90
2022/01/12 09:39:16;;;;;;;;;;;1.40;99.90;;;;;;6213428;23;19966;-90
2022/01/12 09:41:42;;;;;;;;;;;1.50;99.90;;;;;;6211462;23;19968;-89
2022/01/12 09:44:07;;;;;;;;;;;1.50;99.90;;;;;;6179848;23;19917;-91
2022/01/12 09:46:33;;;;;;;;;;;1.50;99.90;;;;;;6189736;23;19912;-92
2022/01/12 09:49:00;;;;;;;;;;;1.50;99.90;;;;;;6212522;23;19912;-90
2022/01/12 09:51:25;;;;;;;;;;;1.50;99.90;;;;;;6211110;23;19922;-91
2022/01/12 09:53:52;;;;;;;;;;;1.50;99.90;;;;;;6210944;23;19986;-91
2022/01/12 09:56:21;;;;;;;;;;;1.60;99.90;;;;;;6211944;23;19942;-86
2022/01/12 09:58:53;;;;;;;;;;;1.60;99.90;;;;;;6215631;23;20523;-89
2022/01/12 10:01:22;;;;;;;;;;;1.60;99.90;;;;;;6221060;23;19916;-92
2022/01/12 10:03:48;;;;;;;;;;;1.70;99.90;;;;;;6225718;23;19927;-87
2022/01/12 10:06:14;;;;;;;;;;;1.70;99.90;;;;;;6205823;23;19916;-88
2022/01/12 10:08:40;;;;;;;;;;;1.80;99.90;;;;;;6205943;23;19915;-89
2022/01/12 10:11:07;;;;;;;;;;;1.90;99.90;;;;;;6221936;23;19923;-88
2022/01/12 10:13:33;;;;;;;;;;;1.90;99.90;;;;;;6220235;23;19915;-91
2022/01/12 10:16:13;;;;;;;;;;;2.00;99.90;;;;;;6242836;23;19931;-91
2022/01/12 10:18:48;;;;;;;;;;;2.10;99.90;;;;;;6213210;23;19911;-90
2022/01/12 10:21:27;;;;;;;;;;;2.10;99.90;;;;;;6236694;23;19908;-90
2022/01/12 10:23:56;;;;;;;;;;;2.20;99.90;;;;;;6208492;23;19935;-90
2022/01/12 10:26:29;;;;;;;;;;;2.20;99.90;;;;;;6208186;23;19954;-90
2022/01/12 10:29:01;;;;;;;;;;;2.20;99.90;;;;;;6235809;23;19931;-91
2022/01/12 10:31:26;;;;;;;;;;;2.30;99.90;;;;;;6207716;23;20403;-91
2022/01/12 10:34:01;;;;;;;;;;;2.30;99.90;;;;;;6208974;23;19912;-91
2022/01/12 10:36:35;;;;;;;;;;;2.40;99.90;;;;;;6209091;23;19965;-92
2022/01/12 10:39:04;;;;;;;;;;;2.60;99.90;;;;;;6209511;23;19908;-91
2022/01/12 10:41:32;;;;;;;;;;;2.70;99.90;;;;;;6208959;23;20350;-90
2022/01/12 10:43:58;;;;;;;;;;;2.70;99.90;;;;;;6208678;23;20665;-91
2022/01/12 10:46:26;;;;;;;;;;;2.70;99.90;;;;;;6208946;23;19908;-91
2022/01/12 10:48:55;;;;;;;;;;;2.80;99.90;;;;;;6210917;23;19981;-87
2022/01/12 10:51:21;;;;;;;;;;;2.80;99.90;;;;;;6212174;23;19978;-90
2022/01/12 10:53:51;;;;;;;;;;;2.70;99.90;;;;;;6186929;23;19912;-90
2022/01/12 10:56:18;;;;;;;;;;;2.80;99.90;;;;;;6201196;23;19914;-90
2022/01/12 10:58:45;;;;;;;;;;;2.80;99.90;;;;;;6212933;23;19982;-90
2022/01/12 11:01:11;;;;;;;;;;;2.80;99.90;;;;;;6194081;23;19976;-91
2022/01/12 11:03:37;;;;;;;;;;;2.80;99.90;;;;;;6195350;23;19912;-91
2022/01/12 11:06:07;;;;;;;;;;;2.80;99.90;;;;;;6211844;23;19911;-91
2022/01/12 11:08:33;;;;;;;;;;;2.80;99.90;;;;;;6211413;23;19931;-91
2022/01/12 11:10:59;;;;;;;;;;;2.80;99.90;;;;;;6209646;23;20014;-89
2022/01/12 11:13:25;;;;;;;;;;;2.90;99.90;;;;;;6243839;23;19912;-90
2022/01/12 11:15:51;;;;;;;;;;;2.80;99.90;;;;;;6241985;23;19912;-90
2022/01/12 11:18:19;;;;;;;;;;;2.80;99.90;;;;;;6217294;23;19919;-87
2022/01/12 11:20:46;;;;;;;;;;;2.80;99.90;;;;;;6217931;23;19916;-91
2022/01/12 11:23:16;;;;;;;;;;;2.80;99.90;;;;;;6216874;23;19912;-90
2022/01/12 11:25:45;;;;;;;;;;;2.80;99.90;;;;;;6213101;23;19931;-92
2022/01/12 11:28:21;;;;;;;;;;;2.80;99.90;;;;;;6222591;23;20338;-90
2022/01/12 11:31:02;;;;;;;;;;;2.80;99.90;;;;;;6220947;23;20575;-92
2022/01/12 11:33:33;;;;;;;;;;;2.80;99.90;;;;;;6215548;23;19919;-90
2022/01/12 11:36:02;;;;;;;;;;;2.80;99.90;;;;;;6203933;23;20264;-91
2022/01/12 11:38:34;;;;;;;;;;;2.80;99.90;;;;;;6224829;23;19930;-90
2022/01/12 11:41:13;;;;;;;;;;;2.80;99.90;;;;;;6214570;23;19908;-91
2022/01/12 11:43:46;;;;;;;;;;;2.80;99.90;;;;;;6216130;23;20319;-89
2022/01/12 11:46:13;;;;;;;;;;;2.80;99.90;;;;;;6215388;23;20128;-88
2022/01/12 11:48:45;;;;;;;;;;;2.80;99.90;;;;;;6217425;23;19919;-91
2022/01/12 11:51:11;;;;;;;;;;;2.80;99.90;;;;;;6184473;23;20296;-91
2022/01/12 11:53:54;;;;;;;;;;;2.90;99.90;;;;;;6231905;23;19912;-90
2022/01/12 11:56:24;;;;;;;;;;;2.80;99.90;;;;;;6211285;23;19919;-90
2022/01/12 11:58:54;;;;;;;;;;;2.90;99.90;;;;;;6211943;23;20324;-92
2022/01/12 12:01:25;;;;;;;;;;;2.80;99.90;;;;;;6208520;23;23060;-91
2022/01/12 12:04:00;;;;;;;;;;;2.80;99.90;;;;;;6238120;23;19917;-90
2022/01/12 12:06:26;;;;;;;;;;;2.80;99.90;;;;;;6209934;23;20350;-92
2022/01/12 12:09:00;;;;;;;;;;;2.80;99.90;;;;;;6239879;23;19915;-88
2022/01/12 12:11:27;;;;;;;;;;;2.80;99.90;;;;;;6209730;23;19990;-91
2022/01/12 12:14:03;;;;;;;;;;;2.80;99.90;;;;;;6236292;23;19946;-91
2022/01/12 12:16:32;;;;;;;;;;;2.80;99.90;;;;;;6209045;23;19961;-91
2022/01/12 12:18:57;;;;;;;;;;;2.80;99.90;;;;;;6209325;23;19912;-91
2022/01/12 12:21:23;;;;;;;;;;;2.80;99.90;;;;;;6211503;23;20233;-90
2022/01/12 12:23:49;;;;;;;;;;;2.80;99.90;;;;;;6209907;23;19911;-90
2022/01/12 12:26:17;;;;;;;;;;;2.90;99.90;;;;;;6207750;23;19934;-91
2022/01/12 12:28:51;;;;;;;;;;;3.50;99.90;;;;;;6186236;23;20632;-91
2022/01/12 12:31:21;;;;;;;;;;;4.40;99.90;;;;;;6188204;23;19912;-91
2022/01/12 12:33:47;;;;;;;;;;;3.60;99.90;;;;;;6208417;23;19939;-90
2022/01/12 12:36:14;;;;;;;;;;;3.20;99.90;;;;;;6208695;23;20105;-90
2022/01/12 12:38:39;;;;;;;;;;;3.00;99.90;;;;;;6209793;23;19912;-92
2022/01/12 12:41:05;;;;;;;;;;;3.00;99.90;;;;;;6208763;23;19991;-89
2022/01/12 12:43:35;;;;;;;;;;;2.90;99.90;;;;;;6209621;23;20323;-86
2022/01/12 12:46:02;;;;;;;;;;;2.90;99.90;;;;;;6209182;23;20366;-92
2022/01/12 12:48:31;;;;;;;;;;;2.80;99.90;;;;;;6209550;23;20216;-91
2022/01/12 12:51:01;;;;;;;;;;;3.10;99.90;;;;;;6208889;23;19912;-90
2022/01/12 12:53:37;;;;;;;;;;;3.20;99.90;;;;;;6234107;23;20421;-90
2022/01/12 12:56:04;;;;;;;;;;;3.30;99.90;;;;;;6206757;23;19908;-90
2022/01/12 12:58:30;;;;;;;;;;;3.20;99.90;;;;;;6208376;23;20302;-89
2022/01/12 13:01:11;;;;;;;;;;;3.00;99.90;;;;;;6207988;23;19911;-93
2022/01/12 13:03:37;;;;;;;;;;;2.90;99.90;;;;;;6208428;23;19953;-90
2022/01/12 13:06:03;;;;;;;;;;;2.90;99.90;;;;;;6207485;23;19908;-91
2022/01/12 13:08:28;;;;;;;;;;;2.90;99.90;;;;;;6235525;23;20243;-89
2022/01/12 13:10:54;;;;;;;;;;;2.80;99.90;;;;;;6233054;23;19938;-91
2022/01/12 13:13:22;;;;;;;;;;;2.80;99.90;;;;;;6207033;23;19923;-89
2022/01/12 13:15:47;;;;;;;;;;;2.90;99.90;;;;;;6207836;23;19975;-88
2022/01/12 13:18:17;;;;;;;;;;;2.90;99.90;;;;;;6208420;23;20016;-90
2022/01/12 13:23:30;;;;;;;;;;;2.90;99.90;;;;;;6235903;23;19919;-87
2022/01/12 13:26:05;;;;;;;;;;;2.90;99.90;;;;;;6207545;23;20340;-92
2022/01/12 13:28:33;;;;;;;;;;;2.90;99.90;;;;;;6209861;23;19912;-89
2022/01/12 13:31:03;;;;;;;;;;;2.90;99.90;;;;;;6208641;23;19986;-91
2022/01/12 13:33:30;;;;;;;;;;;2.90;99.90;;;;;;6186794;23;19916;-87
2022/01/12 13:35:57;;;;;;;;;;;2.90;99.90;;;;;;6218507;23;19907;-90
2022/01/12 13:38:32;;;;;;;;;;;2.90;99.90;;;;;;6236561;23;19916;-91
2022/01/12 13:41:11;;;;;;;;;;;2.90;99.90;;;;;;6209227;23;20401;-92
2022/01/12 13:43:37;;;;;;;;;;;2.90;99.90;;;;;;6209119;23;19982;-92
2022/01/12 13:46:11;;;;;;;;;;;2.90;99.90;;;;;;6236916;23;19912;-89
2022/01/12 13:48:37;;;;;;;;;;;2.90;99.90;;;;;;6213889;23;19990;-89
2022/01/12 13:51:03;;;;;;;;;;;2.90;99.90;;;;;;6234790;23;19943;-91
2022/01/12 13:53:32;;;;;;;;;;;2.90;99.90;;;;;;6236484;23;19923;-91
2022/01/12 13:55:58;;;;;;;;;;;3.00;99.90;;;;;;6208950;23;19959;-90
2022/01/12 13:58:27;;;;;;;;;;;3.00;99.90;;;;;;6209513;23;19940;-89
2022/01/12 14:01:18;;;;;;;;;;;3.00;99.90;;;;;;6208702;23;20332;-91
2022/01/12 14:03:51;;;;;;;;;;;3.00;99.90;;;;;;6203060;23;20714;-90
2022/01/12 14:06:17;;;;;;;;;;;3.00;99.90;;;;;;6209798;23;19907;-91
2022/01/12 14:08:53;;;;;;;;;;;3.00;99.90;;;;;;6236535;23;20332;-90
2022/01/12 14:11:22;;;;;;;;;;;3.00;99.90;;;;;;6235839;23;20033;-89
2022/01/12 14:13:48;;;;;;;;;;;3.00;99.90;;;;;;6236195;23;19993;-91
2022/01/12 14:16:14;;;;;;;;;;;2.90;99.90;;;;;;6207983;23;20372;-91
2022/01/12 14:18:45;;;;;;;;;;;3.00;99.90;;;;;;6208426;23;19916;-90
2022/01/12 14:21:18;;;;;;;;;;;3.00;99.90;;;;;;6206854;23;19914;-86
2022/01/12 14:23:44;;;;;;;;;;;3.00;99.90;;;;;;6188429;23;19915;-86
2022/01/12 14:26:18;;;;;;;;;;;3.00;99.90;;;;;;6160644;23;20249;-86
2022/01/12 14:28:44;;;;;;;;;;;3.00;99.90;;;;;;6195540;23;19911;-85
2022/01/12 14:31:09;;;;;;;;;;;3.00;99.90;;;;;;6205445;23;19911;-89
2022/01/12 14:33:37;;;;;;;;;;;3.00;99.90;;;;;;6208076;23;19923;-89
2022/01/12 14:36:03;;;;;;;;;;;3.00;99.90;;;;;;6206105;23;19908;-88
2022/01/12 14:38:28;;;;;;;;;;;3.00;99.90;;;;;;6187485;23;20326;-90
2022/01/12 14:40:57;;;;;;;;;;;3.00;99.90;;;;;;6152959;23;19911;-92
2022/01/12 14:43:25;;;;;;;;;;;3.00;99.90;;;;;;6190980;23;19974;-87
2022/01/12 14:45:51;;;;;;;;;;;3.00;99.90;;;;;;6207225;23;20350;-88
2022/01/12 14:48:17;;;;;;;;;;;3.00;99.90;;;;;;6222489;23;19912;-88
2022/01/12 14:50:42;;;;;;;;;;;3.00;99.90;;;;;;6204398;23;19912;-88
2022/01/12 14:53:09;;;;;;;;;;;3.00;99.90;;;;;;6206567;23;19919;-88
2022/01/12 14:55:35;;;;;;;;;;;3.00;99.90;;;;;;6233246;23;20336;-87
2022/01/12 14:58:12;;;;;;;;;;;3.00;99.90;;;;;;6205339;23;19922;-88
2022/01/12 15:00:38;;;;;;;;;;;3.00;99.90;;;;;;6205793;23;19915;-87
2022/01/12 15:03:06;;;;;;;;;;;3.00;99.90;;;;;;6206799;23;19915;-88
2022/01/12 15:05:32;;;;;;;;;;;3.10;99.90;;;;;;6206501;23;20335;-88
2022/01/12 15:07:58;;;;;;;;;;;3.00;99.90;;;;;;6233575;23;20003;-89
2022/01/12 15:10:26;;;;;;;;;;;3.00;99.90;;;;;;6206261;23;19914;-88
2022/01/12 15:12:56;;;;;;;;;;;3.10;99.90;;;;;;6206196;23;19943;-89
2022/01/12 15:15:32;;;;;;;;;;;3.00;99.90;;;;;;6171931;23;19923;-89
2022/01/12 15:18:00;;;;;;;;;;;3.00;99.90;;;;;;6183825;23;19915;-90
2022/01/12 15:20:28;;;;;;;;;;;3.10;99.90;;;;;;6205994;23;20287;-90
2022/01/12 15:22:54;;;;;;;;;;;3.10;99.90;;;;;;6167117;23;19966;-89
2022/01/12 15:25:19;;;;;;;;;;;3.10;99.90;;;;;;6152404;23;19939;-91
2022/01/12 15:27:45;;;;;;;;;;;3.10;99.90;;;;;;6207003;23;19942;-87
2022/01/12 15:30:12;;;;;;;;;;;3.00;99.90;;;;;;6205511;23;19912;-89
2022/01/12 15:32:37;;;;;;;;;;;3.10;99.90;;;;;;6192405;23;19908;-89
2022/01/12 15:35:10;;;;;;;;;;;3.10;99.90;;;;;;6205411;23;19969;-86
2022/01/12 15:37:37;;;;;;;;;;;3.10;99.90;;;;;;6180042;23;19912;-90
2022/01/12 15:40:09;;;;;;;;;;;3.10;99.90;;;;;;6158282;23;19912;-90
2022/01/12 15:42:35;;;;;;;;;;;3.10;99.90;;;;;;6151374;23;20046;-91
2022/01/12 15:45:00;;;;;;;;;;;3.10;99.90;;;;;;6220113;23;20343;-89
2022/01/12 15:47:26;;;;;;;;;;;3.10;99.90;;;;;;6234531;23;19908;-86
2022/01/12 15:49:51;;;;;;;;;;;3.10;99.90;;;;;;6208312;23;19951;-90
2022/01/12 15:52:18;;;;;;;;;;;3.10;99.90;;;;;;6207498;23;19912;-90
2022/01/12 15:54:44;;;;;;;;;;;3.10;99.90;;;;;;6235459;23;20354;-90
2022/01/12 15:57:10;;;;;;;;;;;3.10;99.90;;;;;;6207119;23;19907;-90
2022/01/12 15:59:36;;;;;;;;;;;3.10;99.90;;;;;;6208485;23;19908;-90
2022/01/12 16:02:01;;;;;;;;;;;3.10;99.90;;;;;;6208207;23;19912;-90
2022/01/12 16:04:27;;;;;;;;;;;3.10;99.90;;;;;;6208371;23;19946;-90
2022/01/12 16:06:55;;;;;;;;;;;3.50;99.90;;;;;;6207146;23;19947;-90
2022/01/12 16:09:20;;;;;;;;;;;3.20;99.90;;;;;;6208957;23;19911;-92
2022/01/12 16:11:47;;;;;;;;;;;3.20;99.90;;;;;;6207751;23;19939;-90
2022/01/12 16:14:13;;;;;;;;;;;3.10;99.90;;;;;;6206938;23;19927;-92
2022/01/12 16:16:38;;;;;;;;;;;3.10;99.90;;;;;;6204736;23;19951;-92
2022/01/12 16:19:07;;;;;;;;;;;3.10;99.90;;;;;;6209158;23;20489;-91
2022/01/12 16:21:44;;;;;;;;;;;3.00;99.90;;;;;;6168094;23;19911;-91
2022/01/12 16:27:23;;;;;;;;;;;3.00;99.90;;;;;;6211404;23;20951;-93
2022/01/12 16:29:59;;;;;;;;;;;3.10;99.90;;;;;;6145396;23;20600;-91
2022/01/12 16:32:29;;;;;;;;;;;3.30;99.90;;;;;;6135540;23;19915;-90
2022/01/12 16:34:55;;;;;;;;;;;3.10;99.90;;;;;;6184695;23;19946;-92
2022/01/12 16:37:21;;;;;;;;;;;3.00;99.90;;;;;;6207593;23;19919;-91
2022/01/12 16:39:46;;;;;;;;;;;3.00;99.90;;;;;;6209052;23;19912;-91
2022/01/12 16:42:12;;;;;;;;;;;3.00;99.90;;;;;;6207651;23;20114;-91
2022/01/12 16:44:38;;;;;;;;;;;2.90;99.90;;;;;;6191841;23;20547;-92
2022/01/12 16:47:04;;;;;;;;;;;2.90;99.90;;;;;;6208253;23;19908;-92
2022/01/12 16:49:29;;;;;;;;;;;2.90;99.90;;;;;;6192820;23;19907;-90
2022/01/12 16:51:57;;;;;;;;;;;2.80;99.90;;;;;;6185850;23;19978;-92
2022/01/12 16:54:23;;;;;;;;;;;2.80;99.90;;;;;;6208455;23;19916;-91
2022/01/12 16:56:48;;;;;;;;;;;2.80;99.90;;;;;;6208454;23;19918;-88
2022/01/12 16:59:14;;;;;;;;;;;2.80;99.90;;;;;;6210940;23;20323;-90
2022/01/12 17:01:42;;;;;;;;;;;2.80;99.90;;;;;;6175630;23;20307;-91
2022/01/12 17:04:10;;;;;;;;;;;2.80;99.90;;;;;;6202576;23;19912;-89
2022/01/12 17:06:35;;;;;;;;;;;2.80;99.90;;;;;;6236823;23;19978;-91
2022/01/12 17:09:01;;;;;;;;;;;2.80;99.90;;;;;;6210755;23;19931;-91
2022/01/12 17:11:26;;;;;;;;;;;2.80;99.90;;;;;;6209171;23;19930;-90
2022/01/12 17:13:52;;;;;;;;;;;2.80;99.90;;;;;;6235882;23;19965;-89
2022/01/12 17:16:17;;;;;;;;;;;2.80;99.90;;;;;;6236075;23;19919;-90
2022/01/12 17:18:47;;;;;;;;;;;2.80;99.90;;;;;;6209113;23;19923;-89
2022/01/12 17:21:13;;;;;;;;;;;2.80;99.90;;;;;;6234587;23;19912;-91
2022/01/12 17:23:46;;;;;;;;;;;2.80;99.90;;;;;;6208877;23;19916;-91
2022/01/12 17:26:13;;;;;;;;;;;2.80;99.90;;;;;;6208739;23;19912;-91
2022/01/12 17:28:39;;;;;;;;;;;2.80;99.90;;;;;;6236564;23;19916;-90
2022/01/12 17:31:05;;;;;;;;;;;2.80;99.90;;;;;;6208962;23;20538;-92
2022/01/12 17:33:32;;;;;;;;;;;2.80;99.90;;;;;;6209460;23;19961;-90
2022/01/12 17:35:58;;;;;;;;;;;2.80;99.90;;;;;;6190871;23;19916;-90
2022/01/12 17:38:24;;;;;;;;;;;2.90;99.90;;;;;;6234284;23;20182;-90
2022/01/12 17:40:51;;;;;;;;;;;2.90;99.90;;;;;;6169251;23;20055;-93
2022/01/12 17:43:23;;;;;;;;;;;2.90;99.90;;;;;;6209485;23;20033;-91
2022/01/12 17:45:50;;;;;;;;;;;2.90;99.90;;;;;;6209394;23;19927;-89
2022/01/12 17:48:26;;;;;;;;;;;2.90;99.90;;;;;;6212210;23;19908;-90
2022/01/12 17:50:53;;;;;;;;;;;2.90;99.90;;;;;;6205298;23;19911;-92
2022/01/12 17:53:19;;;;;;;;;;;2.90;99.90;;;;;;6189583;23;19923;-90
2022/01/12 17:55:50;;;;;;;;;;;2.90;99.90;;;;;;6191455;23;19966;-90
2022/01/12 17:58:16;;;;;;;;;;;2.90;99.90;;;;;;6211615;23;20356;-91
2022/01/12 18:00:55;;;;;;;;;;;2.90;99.90;;;;;;6170749;23;19986;-91
2022/01/12 18:03:23;;;;;;;;;;;2.90;99.90;;;;;;6163582;23;19911;-92
2022/01/12 18:05:49;;;;;;;;;;;2.90;99.90;;;;;;6170760;23;20268;-88
2022/01/12 18:08:14;;;;;;;;;;;2.90;99.90;;;;;;6224073;23;19962;-91
2022/01/12 18:10:53;;;;;;;;;;;2.90;99.90;;;;;;6209262;23;19965;-90
2022/01/12 18:13:18;;;;;;;;;;;2.90;99.90;;;;;;6178075;23;19919;-90
2022/01/12 18:15:52;;;;;;;;;;;2.90;99.90;;;;;;6209795;23;20293;-90
2022/01/12 18:18:18;;;;;;;;;;;2.90;99.90;;;;;;6203994;23;19930;-88
2022/01/12 18:20:48;;;;;;;;;;;2.90;99.90;;;;;;6161065;23;19913;-91